Hails, China
Current Conditions -  °F | °C
As of 7:00 AM on Wednesday 28 Jan 2015 (Local Time) from ZBHH Reporting Station
Clear Clear  
Wind Chill: -2°   Ceiling: Unl
Heat Index:   Visibility: 6mi
Dew Point: -2°   Wind: 4mph
Humidity: 67%   Direction: 80°E
Pressure: 30.27"   Gusts: NA
Location:  41.45°N, 106.38°E
Report Text: ZBHH 272300Z 08002MPS CAVOK M14/M19 Q1025 NOSIG
Loading
Personal Weather Stations






























Interactive Weather Map New forecast layout! Learn more

10-Day Weather Forecast

Advertisements
Track Severe Weather on mobile